createdAt,value
2022-10-01T00:00:28.860Z,99939.81
2022-10-01T00:02:55.539Z,99933.72
2022-10-01T00:05:22.421Z,99936.31
2022-10-01T00:07:49.041Z,99923.81
2022-10-01T00:10:16.280Z,99928.09
2022-10-01T00:12:48.371Z,99925.97
2022-10-01T00:15:16.719Z,99931.97
2022-10-01T00:17:43.780Z,99931.75
2022-10-01T00:20:14.675Z,99906.41
2022-10-01T00:22:41.753Z,99896.97
2022-10-01T00:25:08.610Z,99886.50
2022-10-01T00:27:36.047Z,99886.03
2022-10-01T00:30:05.057Z,99906.00
2022-10-01T00:32:32.612Z,99882.38
2022-10-01T00:35:00.673Z,99894.50
2022-10-01T00:37:27.348Z,99869.97
2022-10-01T00:39:54.140Z,99851.19
2022-10-01T00:42:24.234Z,99878.41
2022-10-01T00:44:51.534Z,99879.41
2022-10-01T00:47:33.591Z,99875.19
2022-10-01T00:50:07.242Z,99863.28
2022-10-01T00:52:37.047Z,99877.06
2022-10-01T00:55:07.175Z,99877.06
2022-10-01T00:57:34.766Z,99876.34
2022-10-01T01:00:04.956Z,99877.13
2022-10-01T01:02:31.645Z,99870.06
2022-10-01T01:04:59.243Z,99881.34
2022-10-01T01:07:27.256Z,99876.84
2022-10-01T01:09:54.852Z,99854.53
2022-10-01T01:12:47.596Z,99869.75
2022-10-01T01:15:41.014Z,99866.97
2022-10-01T01:18:19.574Z,99859.19
2022-10-01T01:21:24.387Z,99862.84
2022-10-01T01:24:21.997Z,99850.72
2022-10-01T01:27:08.043Z,99855.13
2022-10-01T01:30:01.382Z,99847.00
2022-10-01T01:32:35.118Z,99846.28
2022-10-01T01:35:05.846Z,99841.16
2022-10-01T01:37:38.016Z,99841.16
2022-10-01T01:40:10.179Z,99837.66
2022-10-01T01:42:41.145Z,99835.94
2022-10-01T01:45:12.280Z,99840.00
2022-10-01T01:47:42.204Z,99831.16
2022-10-01T01:50:11.685Z,99830.94
2022-10-01T01:52:38.478Z,99813.44
2022-10-01T01:55:08.648Z,99816.94
2022-10-01T01:57:43.551Z,99812.50
2022-10-01T02:00:12.743Z,99819.66
2022-10-01T02:02:44.116Z,99811.16
2022-10-01T02:05:16.180Z,99813.81
2022-10-01T02:08:03.590Z,99817.38
2022-10-01T02:11:07.582Z,99828.00
2022-10-01T02:14:00.119Z,99822.97
2022-10-01T02:16:26.716Z,99814.50
2022-10-01T02:19:14.800Z,99813.97
2022-10-01T02:22:02.819Z,99794.66
2022-10-01T02:24:39.362Z,99814.38
2022-10-01T02:27:15.627Z,99811.88
2022-10-01T02:29:45.227Z,99801.41
2022-10-01T02:32:14.009Z,99811.69
2022-10-01T02:34:41.896Z,99806.41
2022-10-01T02:37:11.461Z,99810.69
2022-10-01T02:39:41.497Z,99805.41
2022-10-01T02:42:13.508Z,99807.66
2022-10-01T02:44:45.366Z,99806.66
2022-10-01T02:47:28.237Z,99794.22
2022-10-01T02:49:54.933Z,99785.31
2022-10-01T02:52:29.634Z,99792.06
2022-10-01T02:55:01.583Z,99780.47
2022-10-01T02:57:29.699Z,99775.13
2022-10-01T03:00:02.121Z,99779.47
2022-10-01T03:02:31.716Z,99749.97
2022-10-01T03:04:59.639Z,99754.41
2022-10-01T03:07:28.039Z,99773.91
2022-10-01T03:09:54.803Z,99755.84
2022-10-01T03:12:23.316Z,99765.34
2022-10-01T03:14:50.536Z,99774.97
2022-10-01T03:17:17.346Z,99760.06
2022-10-01T03:19:43.879Z,99757.34
2022-10-01T03:22:14.718Z,99756.50
2022-10-01T03:24:41.324Z,99746.63
2022-10-01T03:27:07.825Z,99746.22
2022-10-01T03:29:34.389Z,99749.13
2022-10-01T03:32:01.112Z,99756.31
2022-10-01T03:34:27.776Z,99729.91
2022-10-01T03:36:54.439Z,99746.66
2022-10-01T03:39:21.022Z,99735.22
2022-10-01T03:41:47.771Z,99741.22
2022-10-01T03:44:14.304Z,99719.16
2022-10-01T03:46:40.914Z,99752.00
2022-10-01T03:49:07.487Z,99735.47
2022-10-01T03:51:36.355Z,99748.34
2022-10-01T03:54:05.196Z,99745.72
2022-10-01T03:56:32.022Z,99743.22
2022-10-01T03:58:58.714Z,99731.03
2022-10-01T04:01:26.180Z,99706.44
2022-10-01T04:03:52.867Z,99731.09
2022-10-01T04:06:19.452Z,99733.66
2022-10-01T04:08:46.189Z,99732.81
2022-10-01T04:11:12.818Z,99733.50
2022-10-01T04:13:39.391Z,99729.09
2022-10-01T04:16:07.217Z,99715.66
2022-10-01T04:18:34.447Z,99727.84
2022-10-01T04:21:01.211Z,99728.38
2022-10-01T04:23:27.787Z,99708.84
2022-10-01T04:25:54.424Z,99723.25
2022-10-01T04:28:21.240Z,99725.66
2022-10-01T04:30:47.934Z,99715.41
2022-10-01T04:33:16.973Z,99721.53
2022-10-01T04:35:43.633Z,99709.25
2022-10-01T04:38:16.577Z,99683.56
2022-10-01T04:40:43.582Z,99701.94
2022-10-01T04:43:12.506Z,99699.53
2022-10-01T04:45:39.104Z,99661.84
2022-10-01T04:48:05.904Z,99686.88
2022-10-01T04:50:33.089Z,99694.78
2022-10-01T04:52:59.985Z,99686.19
2022-10-01T04:55:26.668Z,99687.81
2022-10-01T04:57:53.289Z,99675.28
2022-10-01T05:00:22.283Z,99649.38
2022-10-01T05:02:49.897Z,99676.53
2022-10-01T05:05:18.866Z,99666.19
2022-10-01T05:07:45.439Z,99665.47
2022-10-01T05:10:15.159Z,99665.28
2022-10-01T05:12:43.138Z,99649.59
2022-10-01T05:15:10.203Z,99646.84
2022-10-01T05:17:36.863Z,99623.50
2022-10-01T05:20:05.772Z,99644.66
2022-10-01T05:22:32.967Z,99639.03
2022-10-01T05:25:00.385Z,99644.81
2022-10-01T05:27:27.921Z,99644.13
2022-10-01T05:29:54.614Z,99645.84
2022-10-01T05:32:21.130Z,99656.50
2022-10-01T05:34:52.608Z,99654.22
2022-10-01T05:37:20.047Z,99639.88
2022-10-01T05:39:46.738Z,99621.09
2022-10-01T05:42:13.551Z,99663.41
2022-10-01T05:44:46.084Z,99663.41
2022-10-01T05:47:14.024Z,99654.78
2022-10-01T05:49:44.268Z,99659.75
2022-10-01T05:52:11.827Z,99649.59
2022-10-01T05:54:38.522Z,99643.28
2022-10-01T05:57:06.142Z,99654.53
2022-10-01T05:59:32.827Z,99638.19
2022-10-01T06:01:59.568Z,99654.13
2022-10-01T06:04:26.190Z,99648.16
2022-10-01T06:06:56.357Z,99650.88
2022-10-01T06:09:23.162Z,99644.06
2022-10-01T06:11:49.730Z,99633.47
2022-10-01T06:14:17.015Z,99626.69
2022-10-01T06:16:43.723Z,99632.22
2022-10-01T06:19:10.393Z,99620.78
2022-10-01T06:21:37.650Z,99616.28
2022-10-01T06:24:04.406Z,99605.63
2022-10-01T06:26:31.353Z,99592.31
2022-10-01T06:28:59.206Z,99572.78
2022-10-01T06:31:25.904Z,99568.34
2022-10-01T06:33:52.543Z,99578.16
2022-10-01T06:36:19.179Z,99594.13
2022-10-01T06:38:49.393Z,99593.19
2022-10-01T06:41:15.984Z,99597.50
2022-10-01T06:43:43.797Z,99591.56
2022-10-01T06:46:11.396Z,99601.19
2022-10-01T06:48:38.137Z,99603.06
2022-10-01T06:51:05.848Z,99607.34
2022-10-01T06:53:32.459Z,99603.63
2022-10-01T06:56:05.382Z,99587.28
2022-10-01T06:58:32.071Z,99591.13
2022-10-01T07:01:01.361Z,99548.41
2022-10-01T07:03:28.690Z,99550.19
2022-10-01T07:06:01.422Z,99529.59
2022-10-01T07:08:28.010Z,99533.38
2022-10-01T07:10:59.935Z,99547.38
2022-10-01T07:13:26.447Z,99544.53
2022-10-01T07:15:53.058Z,99543.50
2022-10-01T07:18:19.664Z,99543.50
2022-10-01T07:20:46.278Z,99555.88
2022-10-01T07:23:14.823Z,99558.13
2022-10-01T07:25:42.963Z,99546.59
2022-10-01T07:28:16.795Z,99537.66
2022-10-01T07:30:48.328Z,99575.50
2022-10-01T07:33:18.754Z,99584.56
2022-10-01T07:35:47.915Z,99593.84
2022-10-01T07:38:14.737Z,99580.91
2022-10-01T07:40:41.793Z,99576.97
2022-10-01T07:43:08.936Z,99562.72
2022-10-01T07:45:35.542Z,99522.06
2022-10-01T07:48:03.464Z,99524.78
2022-10-01T07:50:30.696Z,99559.75
2022-10-01T07:52:58.886Z,99572.75
2022-10-01T07:55:28.849Z,99567.31
2022-10-01T07:57:57.531Z,99513.44
2022-10-01T08:00:25.960Z,99540.38
2022-10-01T08:02:56.209Z,99576.69
2022-10-01T08:05:29.140Z,99569.00
2022-10-01T08:08:13.791Z,99556.47
2022-10-01T08:10:41.311Z,99550.94
2022-10-01T08:13:16.085Z,99566.44
2022-10-01T08:15:45.281Z,99577.09
2022-10-01T08:18:12.762Z,99583.31
2022-10-01T08:20:39.685Z,99584.25
2022-10-01T08:23:08.686Z,99575.31
2022-10-01T08:25:35.315Z,99561.13
2022-10-01T08:28:02.290Z,99571.63
2022-10-01T08:30:29.462Z,99549.66
2022-10-01T08:32:57.667Z,99566.28
2022-10-01T08:35:25.216Z,99579.41
2022-10-01T08:37:52.355Z,99571.50
2022-10-01T08:40:21.754Z,99593.66
2022-10-01T08:43:18.166Z,99625.56
2022-10-01T08:45:51.685Z,99628.13
2022-10-01T08:48:33.496Z,99627.28
2022-10-01T08:51:10.575Z,99628.28
2022-10-01T08:53:46.877Z,99628.38
2022-10-01T08:56:31.856Z,99619.63
2022-10-01T08:59:02.917Z,99618.56
2022-10-01T09:01:30.292Z,99621.66
2022-10-01T09:03:59.292Z,99629.22
2022-10-01T09:06:27.730Z,99629.22
2022-10-01T09:09:43.555Z,99628.63
2022-10-01T09:12:28.154Z,99607.00
2022-10-01T09:15:06.167Z,99614.31
2022-10-01T09:17:59.158Z,99619.47
2022-10-01T09:20:39.164Z,99621.69
2022-10-01T09:23:31.653Z,99611.69
2022-10-01T09:25:59.788Z,99620.59
2022-10-01T09:28:31.308Z,99624.84
2022-10-01T09:31:14.505Z,99620.19
2022-10-01T09:33:58.370Z,99612.09
2022-10-01T09:36:39.827Z,99623.44
2022-10-01T09:39:20.226Z,99622.69
2022-10-01T09:41:46.871Z,99611.50
2022-10-01T09:44:18.850Z,99611.31
2022-10-01T09:46:47.035Z,99617.38
2022-10-01T09:49:31.738Z,99617.13
2022-10-01T09:52:06.344Z,99612.84
2022-10-01T09:54:43.182Z,99613.44
2022-10-01T09:57:14.850Z,99616.38
2022-10-01T10:00:04.967Z,99612.72
2022-10-01T10:02:49.206Z,99624.84
2022-10-01T10:05:25.209Z,99625.31
2022-10-01T10:08:10.339Z,99594.44
2022-10-01T10:10:39.693Z,99621.44
2022-10-01T10:13:26.731Z,99623.34
2022-10-01T10:15:59.291Z,99614.53
2022-10-01T10:18:37.008Z,99611.63
2022-10-01T10:21:08.057Z,99627.34
2022-10-01T10:23:35.371Z,99629.69
2022-10-01T10:26:07.482Z,99619.94
2022-10-01T10:28:44.168Z,99623.53
2022-10-01T10:31:15.740Z,99626.94
2022-10-01T10:33:55.602Z,99639.06
2022-10-01T10:36:34.541Z,99630.19
2022-10-01T10:39:03.460Z,99621.19
2022-10-01T10:41:30.972Z,99616.84
2022-10-01T10:44:00.668Z,99625.47
2022-10-01T10:46:37.906Z,99615.13
2022-10-01T10:49:08.186Z,99623.75
2022-10-01T10:51:44.746Z,99614.09
2022-10-01T10:54:19.158Z,99611.34
2022-10-01T10:57:00.718Z,99623.53
2022-10-01T10:59:27.279Z,99624.13
2022-10-01T11:01:54.450Z,99621.19
2022-10-01T11:04:38.188Z,99616.81
2022-10-01T11:07:05.227Z,99622.19
2022-10-01T11:10:00.544Z,99624.75
2022-10-01T11:12:43.934Z,99636.50
2022-10-01T11:15:29.843Z,99632.81
2022-10-01T11:18:04.091Z,99635.00
2022-10-01T11:20:54.374Z,99635.09
2022-10-01T11:23:43.729Z,99637.56
2022-10-01T11:26:34.189Z,99627.34
2022-10-01T11:29:09.838Z,99651.09
2022-10-01T11:31:52.837Z,99625.38
2022-10-01T11:34:40.501Z,99647.69
2022-10-01T11:37:52.261Z,99663.41
2022-10-01T11:40:33.269Z,99649.84
2022-10-01T11:43:12.945Z,99654.19
2022-10-01T11:45:47.863Z,99658.09
2022-10-01T11:48:54.037Z,99650.53
2022-10-01T11:51:29.119Z,99633.50
2022-10-01T11:54:01.413Z,99643.50
2022-10-01T11:56:51.987Z,99619.41
2022-10-01T11:59:25.456Z,99641.88
2022-10-01T12:02:04.213Z,99611.34
2022-10-01T12:04:46.476Z,99637.66
2022-10-01T12:07:27.988Z,99644.47
2022-10-01T12:10:03.677Z,99615.91
2022-10-01T12:12:38.510Z,99645.91
2022-10-01T12:15:20.093Z,99646.53
2022-10-01T12:17:54.732Z,99634.19
2022-10-01T12:20:55.814Z,99655.81
2022-10-01T12:23:28.431Z,99656.25
2022-10-01T12:26:13.169Z,99643.31
2022-10-01T12:28:59.949Z,99651.22
2022-10-01T12:31:54.040Z,99645.19
2022-10-01T12:34:53.184Z,99651.50
2022-10-01T12:37:29.422Z,99649.06
2022-10-01T12:40:05.051Z,99656.50
2022-10-01T12:42:47.571Z,99623.34
2022-10-01T12:45:45.428Z,99652.09
2022-10-01T12:48:26.181Z,99648.78
2022-10-01T12:51:09.464Z,99651.66
2022-10-01T12:53:43.124Z,99649.22
2022-10-01T12:56:21.573Z,99647.31
2022-10-01T12:59:03.031Z,99644.19
2022-10-01T13:01:36.234Z,99639.69
2022-10-01T13:04:38.555Z,99645.94
2022-10-01T13:07:10.750Z,99649.47
2022-10-01T13:09:48.835Z,99647.53
2022-10-01T13:12:22.009Z,99643.34
2022-10-01T13:14:48.979Z,99609.94
2022-10-01T13:17:31.440Z,99638.72
2022-10-01T13:20:15.839Z,99645.63
2022-10-01T13:23:05.449Z,99641.28
2022-10-01T13:25:50.723Z,99652.22
2022-10-01T13:28:32.779Z,99640.84
2022-10-01T13:31:09.942Z,99620.59
2022-10-01T13:33:37.289Z,99636.81
2022-10-01T13:36:06.771Z,99644.47
2022-10-01T13:38:45.096Z,99639.59
2022-10-01T13:41:24.009Z,99642.50
2022-10-01T13:44:09.040Z,99636.81
2022-10-01T13:46:49.497Z,99644.94
2022-10-01T13:49:25.334Z,99638.75
2022-10-01T13:51:52.826Z,99620.94
2022-10-01T13:54:27.755Z,99631.50
2022-10-01T13:56:54.781Z,99626.31
2022-10-01T13:59:31.664Z,99633.34
2022-10-01T14:01:58.539Z,99638.19
2022-10-01T14:04:34.501Z,99647.03
2022-10-01T14:07:24.420Z,99635.53
2022-10-01T14:09:57.201Z,99640.84
2022-10-01T14:12:51.911Z,99638.16
2022-10-01T14:15:45.329Z,99643.72
2022-10-01T14:18:17.549Z,99648.66
2022-10-01T14:20:50.525Z,99648.31
2022-10-01T14:23:34.102Z,99649.69
2022-10-01T14:26:12.774Z,99651.50
2022-10-01T14:29:00.381Z,99634.16
2022-10-01T14:31:50.110Z,99646.47
2022-10-01T14:34:36.158Z,99650.59
2022-10-01T14:37:07.072Z,99648.53
2022-10-01T14:39:34.161Z,99648.63
2022-10-01T14:42:16.473Z,99649.22
2022-10-01T14:44:46.599Z,99646.53
2022-10-01T14:47:23.480Z,99654.25
2022-10-01T14:49:51.598Z,99645.91
2022-10-01T14:52:26.567Z,99653.81
2022-10-01T14:55:07.099Z,99653.75
2022-10-01T14:57:35.175Z,99647.81
2022-10-01T15:00:09.255Z,99653.38
2022-10-01T15:02:47.530Z,99660.78
2022-10-01T15:05:30.277Z,99657.84
2022-10-01T15:07:56.989Z,99649.34
2022-10-01T15:10:28.079Z,99658.22
2022-10-01T15:12:55.600Z,99667.53
2022-10-01T15:15:34.451Z,99670.47
2022-10-01T15:18:04.403Z,99657.63
2022-10-01T15:20:31.526Z,99682.16
2022-10-01T15:23:01.483Z,99680.22
2022-10-01T15:25:31.246Z,99689.66
2022-10-01T15:27:57.930Z,99684.59
2022-10-01T15:30:27.427Z,99693.06
2022-10-01T15:32:54.522Z,99670.03
2022-10-01T15:35:23.831Z,99689.19
2022-10-01T15:37:51.670Z,99687.00
2022-10-01T15:40:30.509Z,99683.72
2022-10-01T15:43:25.395Z,99702.66
2022-10-01T15:46:11.395Z,99690.59
2022-10-01T15:48:38.279Z,99699.94
2022-10-01T15:51:27.216Z,99713.66
2022-10-01T15:54:02.081Z,99713.88
2022-10-01T15:56:29.895Z,99719.84
2022-10-01T15:59:11.063Z,99730.50
2022-10-01T16:01:41.547Z,99751.00
2022-10-01T16:04:09.517Z,99747.81
2022-10-01T16:06:40.749Z,99747.59
2022-10-01T16:09:12.217Z,99752.81
2022-10-01T16:11:58.856Z,99760.66
2022-10-01T16:14:27.988Z,99773.88
2022-10-01T16:17:19.721Z,99779.75
2022-10-01T16:19:52.282Z,99786.78
2022-10-01T16:22:32.568Z,99774.72
2022-10-01T16:25:24.026Z,99802.53
2022-10-01T16:27:56.404Z,99809.56
2022-10-01T16:30:29.650Z,99806.28
2022-10-01T16:32:58.479Z,99816.53
2022-10-01T16:35:30.016Z,99826.03
2022-10-01T16:37:58.006Z,99823.94
2022-10-01T16:40:32.876Z,99817.00
2022-10-01T16:43:00.597Z,99816.22
2022-10-01T16:45:34.101Z,99826.41
2022-10-01T16:48:00.973Z,99828.69
2022-10-01T16:50:27.551Z,99826.03
2022-10-01T16:52:55.645Z,99834.97
2022-10-01T16:55:25.196Z,99820.97
2022-10-01T16:57:54.585Z,99831.38
2022-10-01T17:00:23.201Z,99843.13
2022-10-01T17:02:49.812Z,99861.16
2022-10-01T17:05:19.888Z,99857.09
2022-10-01T17:07:46.753Z,99861.69
2022-10-01T17:10:13.978Z,99872.34
2022-10-01T17:12:42.013Z,99883.22
2022-10-01T17:15:17.778Z,99884.31
2022-10-01T17:17:45.585Z,99891.75
2022-10-01T17:20:12.738Z,99889.47
2022-10-01T17:22:39.536Z,99888.97
2022-10-01T17:25:07.539Z,99900.59
2022-10-01T17:27:34.162Z,99903.25
2022-10-01T17:30:00.717Z,99903.34
2022-10-01T17:32:27.819Z,99902.50
2022-10-01T17:34:54.478Z,99890.06
2022-10-01T17:37:23.907Z,99910.81
2022-10-01T17:39:50.828Z,99892.16
2022-10-01T17:42:18.090Z,99925.06
2022-10-01T17:44:44.955Z,99933.06
2022-10-01T17:47:11.709Z,99925.28
2022-10-01T17:49:38.215Z,99942.97
2022-10-01T17:52:05.793Z,99942.34
2022-10-01T17:54:33.305Z,99951.06
2022-10-01T17:56:59.990Z,99952.16
2022-10-01T17:59:26.734Z,99966.19
2022-10-01T18:01:54.499Z,99947.53
2022-10-01T18:04:21.597Z,99984.19
2022-10-01T18:06:48.912Z,99988.22
2022-10-01T18:09:15.930Z,99999.31
2022-10-01T18:11:42.695Z,99992.78
2022-10-01T18:14:09.441Z,100015.13
2022-10-01T18:16:36.343Z,100012.88
2022-10-01T18:21:51.181Z,100024.31
2022-10-01T18:24:17.846Z,100029.78
2022-10-01T18:26:45.809Z,100038.03
2022-10-01T18:29:19.599Z,100024.78
2022-10-01T18:31:46.561Z,100038.53
2022-10-01T18:34:39.112Z,100045.88
2022-10-01T18:37:21.958Z,100051.28
2022-10-01T18:39:56.570Z,100049.56
2022-10-01T18:42:34.312Z,100052.16
2022-10-01T18:45:03.339Z,100063.34
2022-10-01T18:48:00.282Z,100071.53
2022-10-01T18:50:29.780Z,100078.00
2022-10-01T18:53:18.798Z,100083.53
2022-10-01T18:56:22.070Z,100085.78
2022-10-01T18:58:57.664Z,100091.59
2022-10-01T19:01:47.960Z,100095.88
2022-10-01T19:04:26.527Z,100097.38
2022-10-01T19:07:01.673Z,100104.59
2022-10-01T19:10:00.341Z,100118.53
2022-10-01T19:12:35.868Z,100118.63
2022-10-01T19:15:33.821Z,100116.19
2022-10-01T19:18:00.342Z,100108.97
2022-10-01T19:20:43.877Z,100113.72
2022-10-01T19:23:41.365Z,100134.03
2022-10-01T19:26:16.535Z,100140.41
2022-10-01T19:28:52.314Z,100141.44
2022-10-01T19:31:28.527Z,100146.59
2022-10-01T19:34:28.504Z,100151.31
2022-10-01T19:37:02.202Z,100131.81
2022-10-01T19:39:37.190Z,100155.59
2022-10-01T19:42:23.530Z,100166.91
2022-10-01T19:45:03.088Z,100167.38
2022-10-01T19:47:50.805Z,100179.81
2022-10-01T19:50:21.692Z,100172.91
2022-10-01T19:52:51.585Z,100158.75
2022-10-01T19:55:20.996Z,100194.19
2022-10-01T19:57:47.632Z,100193.59
2022-10-01T20:00:21.572Z,100199.84
2022-10-01T20:02:58.078Z,100208.97
2022-10-01T20:05:32.097Z,100210.69
2022-10-01T20:08:01.480Z,100212.47
2022-10-01T20:10:43.271Z,100206.03
2022-10-01T20:13:18.857Z,100219.22
2022-10-01T20:15:55.353Z,100230.00
2022-10-01T20:18:51.581Z,100234.09
2022-10-01T20:21:39.351Z,100243.19
2022-10-01T20:24:29.004Z,100244.97
2022-10-01T20:27:11.576Z,100251.16
2022-10-01T20:29:49.976Z,100258.28
2022-10-01T20:32:31.067Z,100254.16
2022-10-01T20:35:16.167Z,100259.75
2022-10-01T20:38:17.397Z,100268.78
2022-10-01T20:40:52.041Z,100273.50
2022-10-01T20:43:31.403Z,100240.97
2022-10-01T20:45:59.885Z,100269.47
2022-10-01T20:48:39.461Z,100271.38
2022-10-01T20:51:12.239Z,100270.69
2022-10-01T20:53:55.056Z,100277.91
2022-10-01T20:56:35.324Z,100280.03
2022-10-01T20:59:11.427Z,100298.47
2022-10-01T21:01:46.272Z,100291.34
2022-10-01T21:04:20.796Z,100289.56
2022-10-01T21:06:51.819Z,100303.69
2022-10-01T21:09:25.258Z,100303.69
2022-10-01T21:12:03.944Z,100305.31
2022-10-01T21:14:56.860Z,100311.56
2022-10-01T21:17:53.012Z,100308.22
2022-10-01T21:20:34.451Z,100314.56
2022-10-01T21:23:38.284Z,100320.91
2022-10-01T21:26:25.404Z,100320.25
2022-10-01T21:29:34.114Z,100327.06
2022-10-01T21:32:15.541Z,100331.38
2022-10-01T21:35:11.238Z,100339.09
2022-10-01T21:37:50.668Z,100338.91
2022-10-01T21:40:41.955Z,100340.53
2022-10-01T21:43:32.198Z,100345.94
2022-10-01T21:46:07.592Z,100358.47
2022-10-01T21:48:52.198Z,100354.09
2022-10-01T21:51:55.300Z,100359.41
2022-10-01T21:54:48.608Z,100369.09
2022-10-01T21:57:33.966Z,100363.06
2022-10-01T22:00:21.474Z,100369.56
2022-10-01T22:03:11.461Z,100380.41
2022-10-01T22:05:43.808Z,100359.22
2022-10-01T22:08:28.283Z,100381.59
2022-10-01T22:11:00.539Z,100395.09
2022-10-01T22:13:30.115Z,100376.94
2022-10-01T22:16:02.197Z,100358.19
2022-10-01T22:19:08.088Z,100388.59
2022-10-01T22:21:39.481Z,100404.53
2022-10-01T22:24:13.686Z,100407.25
2022-10-01T22:26:47.149Z,100400.31
2022-10-01T22:29:20.298Z,100411.72
2022-10-01T22:31:49.566Z,100387.72
2022-10-01T22:34:23.804Z,100406.72
2022-10-01T22:36:54.336Z,100414.88
2022-10-01T22:39:27.139Z,100415.13
2022-10-01T22:42:00.112Z,100422.22
2022-10-01T22:44:28.094Z,100410.38
2022-10-01T22:47:06.055Z,100423.16
2022-10-01T22:50:00.293Z,100433.53
2022-10-01T22:52:58.571Z,100434.25
2022-10-01T22:55:39.158Z,100434.25
2022-10-01T22:58:06.258Z,100437.50
2022-10-01T23:00:43.293Z,100440.16
2022-10-01T23:03:34.814Z,100447.00
2022-10-01T23:06:11.751Z,100453.69
2022-10-01T23:09:00.912Z,100443.84
2022-10-01T23:11:55.327Z,100453.38
2022-10-01T23:14:33.602Z,100460.25
2022-10-01T23:17:20.160Z,100461.97
2022-10-01T23:19:55.698Z,100460.16
2022-10-01T23:22:22.256Z,100467.44
2022-10-01T23:25:14.760Z,100469.47
2022-10-01T23:28:10.745Z,100457.47
2022-10-01T23:30:43.189Z,100443.22
2022-10-01T23:33:32.687Z,100460.59
2022-10-01T23:36:05.096Z,100460.78
2022-10-01T23:38:31.636Z,100436.31
2022-10-01T23:41:02.739Z,100457.75
2022-10-01T23:43:43.366Z,100476.56
2022-10-01T23:46:15.846Z,100490.94
2022-10-01T23:48:52.671Z,100491.19
2022-10-01T23:51:24.847Z,100491.47
2022-10-01T23:54:28.435Z,100504.94
2022-10-01T23:57:07.610Z,100498.91
2022-10-01T23:59:37.064Z,100493.84
